sensor_id;sensor_type;location;lat;lon;timestamp;pressure;altitude;pressure_sealevel;temperature;humidity
76594;BME280;65482;50.240;14.302;2023-10-08T00:00:26;99707.50;;;18.23;52.49
76594;BME280;65482;50.240;14.302;2023-10-08T00:03:30;99707.50;;;18.23;52.56
76594;BME280;65482;50.240;14.302;2023-10-08T00:05:58;99699.91;;;18.20;52.65
76594;BME280;65482;50.240;14.302;2023-10-08T00:08:23;99693.53;;;18.21;52.37
76594;BME280;65482;50.240;14.302;2023-10-08T00:10:49;99691.91;;;18.13;52.74
76594;BME280;65482;50.240;14.302;2023-10-08T00:13:15;99696.19;;;18.14;52.70
76594;BME280;65482;50.240;14.302;2023-10-08T00:15:44;99690.47;;;18.11;52.82
76594;BME280;65482;50.240;14.302;2023-10-08T00:18:21;99700.72;;;18.14;53.24
76594;BME280;65482;50.240;14.302;2023-10-08T00:20:47;99696.00;;;18.16;52.77
76594;BME280;65482;50.240;14.302;2023-10-08T00:23:21;99683.06;;;18.19;52.72
76594;BME280;65482;50.240;14.302;2023-10-08T00:25:47;99682.03;;;18.07;53.33
76594;BME280;65482;50.240;14.302;2023-10-08T00:28:13;99669.50;;;18.07;52.85
76594;BME280;65482;50.240;14.302;2023-10-08T00:30:41;99670.34;;;18.01;53.18
76594;BME280;65482;50.240;14.302;2023-10-08T00:33:08;99663.78;;;17.91;53.59
76594;BME280;65482;50.240;14.302;2023-10-08T00:35:41;99665.81;;;17.95;53.49
76594;BME280;65482;50.240;14.302;2023-10-08T00:38:10;99662.53;;;17.93;53.52
76594;BME280;65482;50.240;14.302;2023-10-08T00:40:46;99660.47;;;17.95;53.35
76594;BME280;65482;50.240;14.302;2023-10-08T00:43:33;99663.75;;;17.97;53.44
76594;BME280;65482;50.240;14.302;2023-10-08T00:46:04;99651.66;;;17.95;53.64
76594;BME280;65482;50.240;14.302;2023-10-08T00:48:56;99656.78;;;17.96;53.38
76594;BME280;65482;50.240;14.302;2023-10-08T00:51:23;99664.16;;;17.94;53.48
76594;BME280;65482;50.240;14.302;2023-10-08T00:54:00;99655.97;;;17.96;53.69
76594;BME280;65482;50.240;14.302;2023-10-08T00:56:32;99660.25;;;17.90;53.70
76594;BME280;65482;50.240;14.302;2023-10-08T00:59:18;99662.97;;;17.97;53.62
76594;BME280;65482;50.240;14.302;2023-10-08T01:01:47;99656.78;;;17.96;53.69
76594;BME280;65482;50.240;14.302;2023-10-08T01:04:25;99651.47;;;18.03;53.56
76594;BME280;65482;50.240;14.302;2023-10-08T01:07:01;99643.03;;;17.99;53.54
76594;BME280;65482;50.240;14.302;2023-10-08T01:09:36;99655.34;;;18.00;53.66
76594;BME280;65482;50.240;14.302;2023-10-08T01:12:14;99654.94;;;17.97;53.84
76594;BME280;65482;50.240;14.302;2023-10-08T01:14:42;99649.00;;;18.01;53.61
76594;BME280;65482;50.240;14.302;2023-10-08T01:17:11;99648.34;;;18.06;53.64
76594;BME280;65482;50.240;14.302;2023-10-08T01:19:45;99656.78;;;18.09;53.62
76594;BME280;65482;50.240;14.302;2023-10-08T01:22:22;99654.94;;;18.17;53.39
76594;BME280;65482;50.240;14.302;2023-10-08T01:24:51;99669.53;;;18.21;53.30
76594;BME280;65482;50.240;14.302;2023-10-08T01:27:18;99670.34;;;18.21;53.36
76594;BME280;65482;50.240;14.302;2023-10-08T01:29:51;99655.75;;;18.31;53.17
76594;BME280;65482;50.240;14.302;2023-10-08T01:32:21;99653.88;;;18.38;53.00
76594;BME280;65482;50.240;14.302;2023-10-08T01:34:48;99645.25;;;18.42;52.79
76594;BME280;65482;50.240;14.302;2023-10-08T01:37:14;99652.63;;;18.47;52.77
76594;BME280;65482;50.240;14.302;2023-10-08T01:39:43;99648.09;;;18.47;52.77
76594;BME280;65482;50.240;14.302;2023-10-08T01:42:13;99648.31;;;18.53;52.71
76594;BME280;65482;50.240;14.302;2023-10-08T01:44:49;99652.19;;;18.50;52.89
76594;BME280;65482;50.240;14.302;2023-10-08T01:47:16;99646.88;;;18.57;52.50
76594;BME280;65482;50.240;14.302;2023-10-08T01:49:43;99651.16;;;18.58;52.71
76594;BME280;65482;50.240;14.302;2023-10-08T01:52:13;99649.75;;;18.55;52.61
76594;BME280;65482;50.240;14.302;2023-10-08T01:54:48;99647.28;;;18.60;52.89
76594;BME280;65482;50.240;14.302;2023-10-08T01:57:15;99649.09;;;18.60;52.58
76594;BME280;65482;50.240;14.302;2023-10-08T01:59:40;99646.22;;;18.61;52.63
76594;BME280;65482;50.240;14.302;2023-10-08T02:02:06;99635.78;;;18.53;52.70
76594;BME280;65482;50.240;14.302;2023-10-08T02:04:33;99645.81;;;18.58;52.75
76594;BME280;65482;50.240;14.302;2023-10-08T02:07:01;99644.00;;;18.52;52.56
76594;BME280;65482;50.240;14.302;2023-10-08T02:09:26;99637.25;;;18.42;52.89
76594;BME280;65482;50.240;14.302;2023-10-08T02:11:53;99645.03;;;18.44;52.88
76594;BME280;65482;50.240;14.302;2023-10-08T02:14:22;99636.63;;;18.34;53.22
76594;BME280;65482;50.240;14.302;2023-10-08T02:16:49;99643.41;;;18.29;53.26
76594;BME280;65482;50.240;14.302;2023-10-08T02:19:15;99638.28;;;18.28;53.45
76594;BME280;65482;50.240;14.302;2023-10-08T02:21:47;99635.63;;;18.21;53.67
76594;BME280;65482;50.240;14.302;2023-10-08T02:24:13;99636.25;;;18.23;53.59
76594;BME280;65482;50.240;14.302;2023-10-08T02:26:39;99635.22;;;18.18;53.58
76594;BME280;65482;50.240;14.302;2023-10-08T02:29:05;99631.94;;;18.16;53.82
76594;BME280;65482;50.240;14.302;2023-10-08T02:31:40;99632.56;;;18.11;53.97
76594;BME280;65482;50.240;14.302;2023-10-08T02:34:06;99628.84;;;18.12;54.14
76594;BME280;65482;50.240;14.302;2023-10-08T02:36:36;99628.44;;;18.15;53.95
76594;BME280;65482;50.240;14.302;2023-10-08T02:39:03;99629.06;;;18.11;54.02
76594;BME280;65482;50.240;14.302;2023-10-08T02:41:35;99617.19;;;18.06;54.27
76594;BME280;65482;50.240;14.302;2023-10-08T02:44:01;99625.78;;;18.02;54.40
76594;BME280;65482;50.240;14.302;2023-10-08T02:46:26;99628.66;;;17.94;55.14
76594;BME280;65482;50.240;14.302;2023-10-08T02:48:55;99626.41;;;17.91;54.76
76594;BME280;65482;50.240;14.302;2023-10-08T02:51:21;99604.84;;;17.92;54.83
76594;BME280;65482;50.240;14.302;2023-10-08T02:53:47;99614.91;;;17.90;55.01
76594;BME280;65482;50.240;14.302;2023-10-08T02:56:15;99618.00;;;17.87;54.96
76594;BME280;65482;50.240;14.302;2023-10-08T02:58:42;99617.56;;;17.90;55.03
76594;BME280;65482;50.240;14.302;2023-10-08T03:01:09;99625.16;;;17.86;55.16
76594;BME280;65482;50.240;14.302;2023-10-08T03:03:41;99634.81;;;17.87;55.51
76594;BME280;65482;50.240;14.302;2023-10-08T03:06:07;99637.50;;;17.87;55.21
76594;BME280;65482;50.240;14.302;2023-10-08T03:08:38;99638.50;;;17.86;55.22
76594;BME280;65482;50.240;14.302;2023-10-08T03:11:10;99648.75;;;17.83;55.27
76594;BME280;65482;50.240;14.302;2023-10-08T03:13:44;99653.91;;;17.84;55.50
76594;BME280;65482;50.240;14.302;2023-10-08T03:16:13;99663.75;;;17.84;55.42
76594;BME280;65482;50.240;14.302;2023-10-08T03:18:39;99671.56;;;17.85;55.47
76594;BME280;65482;50.240;14.302;2023-10-08T03:21:10;99662.75;;;17.85;55.45
76594;BME280;65482;50.240;14.302;2023-10-08T03:23:46;99660.69;;;17.87;55.57
76594;BME280;65482;50.240;14.302;2023-10-08T03:26:22;99660.28;;;17.83;55.52
76594;BME280;65482;50.240;14.302;2023-10-08T03:28:57;99663.13;;;17.88;55.60
76594;BME280;65482;50.240;14.302;2023-10-08T03:31:23;99658.03;;;17.87;55.53
76594;BME280;65482;50.240;14.302;2023-10-08T03:34:10;99648.78;;;17.89;55.62
76594;BME280;65482;50.240;14.302;2023-10-08T03:36:40;99648.59;;;17.91;55.62
76594;BME280;65482;50.240;14.302;2023-10-08T03:39:14;99637.53;;;19.38;51.87
76594;BME280;65482;50.240;14.302;2023-10-08T03:41:43;99657.50;;;20.24;49.46
76594;BME280;65482;50.240;14.302;2023-10-08T03:44:17;99655.50;;;20.38;49.01
76594;BME280;65482;50.240;14.302;2023-10-08T03:46:42;99657.25;;;18.92;52.63
76594;BME280;65482;50.240;14.302;2023-10-08T03:49:11;99650.63;;;18.02;55.58
76594;BME280;65482;50.240;14.302;2023-10-08T03:51:57;99650.63;;;17.89;56.36
76594;BME280;65482;50.240;14.302;2023-10-08T03:54:23;99652.25;;;17.90;56.50
76594;BME280;65482;50.240;14.302;2023-10-08T03:56:55;99644.66;;;17.94;56.30
76594;BME280;65482;50.240;14.302;2023-10-08T03:59:21;99657.19;;;17.93;56.45
76594;BME280;65482;50.240;14.302;2023-10-08T04:02:00;99643.44;;;17.96;56.43
76594;BME280;65482;50.240;14.302;2023-10-08T04:04:40;99662.72;;;17.98;56.45
76594;BME280;65482;50.240;14.302;2023-10-08T04:07:23;99654.72;;;17.98;56.53
76594;BME280;65482;50.240;14.302;2023-10-08T04:09:59;99666.63;;;18.02;56.44
76594;BME280;65482;50.240;14.302;2023-10-08T04:12:51;99681.81;;;18.02;56.54
76594;BME280;65482;50.240;14.302;2023-10-08T04:15:18;99688.59;;;18.04;56.69
76594;BME280;65482;50.240;14.302;2023-10-08T04:17:45;99686.34;;;18.08;57.01
76594;BME280;65482;50.240;14.302;2023-10-08T04:20:12;99685.75;;;18.13;57.10
76594;BME280;65482;50.240;14.302;2023-10-08T04:22:57;99708.13;;;18.12;57.84
76594;BME280;65482;50.240;14.302;2023-10-08T04:25:29;99729.28;;;18.06;59.24
76594;BME280;65482;50.240;14.302;2023-10-08T04:28:00;99778.72;;;17.96;61.31
76594;BME280;65482;50.240;14.302;2023-10-08T04:30:35;99805.75;;;17.79;62.63
76594;BME280;65482;50.240;14.302;2023-10-08T04:33:03;99830.75;;;17.30;62.64
76594;BME280;65482;50.240;14.302;2023-10-08T04:35:35;99817.97;;;16.84;61.66
76594;BME280;65482;50.240;14.302;2023-10-08T04:38:25;99843.28;;;16.30;63.52
76594;BME280;65482;50.240;14.302;2023-10-08T04:40:52;99842.78;;;16.05;63.49
76594;BME280;65482;50.240;14.302;2023-10-08T04:43:27;99845.22;;;15.85;64.49
76594;BME280;65482;50.240;14.302;2023-10-08T04:45:57;99847.91;;;15.70;65.18
76594;BME280;65482;50.240;14.302;2023-10-08T04:48:24;99860.00;;;15.58;65.68
76594;BME280;65482;50.240;14.302;2023-10-08T04:50:51;99858.44;;;15.34;67.19
76594;BME280;65482;50.240;14.302;2023-10-08T04:53:32;99863.13;;;15.31;67.85
76594;BME280;65482;50.240;14.302;2023-10-08T04:56:08;99878.97;;;15.10;67.63
76594;BME280;65482;50.240;14.302;2023-10-08T04:58:43;99860.03;;;14.90;67.87
76594;BME280;65482;50.240;14.302;2023-10-08T05:01:13;99880.72;;;14.80;68.24
76594;BME280;65482;50.240;14.302;2023-10-08T05:04:04;99883.50;;;14.63;68.18
76594;BME280;65482;50.240;14.302;2023-10-08T05:06:32;99887.25;;;14.46;69.20
76594;BME280;65482;50.240;14.302;2023-10-08T05:09:06;99898.88;;;14.45;68.57
76594;BME280;65482;50.240;14.302;2023-10-08T05:11:55;99885.00;;;14.35;68.40
76594;BME280;65482;50.240;14.302;2023-10-08T05:14:22;99892.06;;;14.19;68.95
76594;BME280;65482;50.240;14.302;2023-10-08T05:17:15;99888.22;;;14.22;68.99
76594;BME280;65482;50.240;14.302;2023-10-08T05:19:44;99889.66;;;14.32;68.52
76594;BME280;65482;50.240;14.302;2023-10-08T05:22:28;99884.59;;;14.23;68.90
76594;BME280;65482;50.240;14.302;2023-10-08T05:24:55;99905.81;;;14.23;68.71
76594;BME280;65482;50.240;14.302;2023-10-08T05:27:34;99911.75;;;14.25;68.66
76594;BME280;65482;50.240;14.302;2023-10-08T05:30:06;99921.53;;;14.24;67.47
76594;BME280;65482;50.240;14.302;2023-10-08T05:32:45;99936.84;;;14.14;67.47
76594;BME280;65482;50.240;14.302;2023-10-08T05:35:32;99938.19;;;14.10;66.81
76594;BME280;65482;50.240;14.302;2023-10-08T05:38:08;99958.31;;;13.96;66.90
76594;BME280;65482;50.240;14.302;2023-10-08T05:40:53;99962.34;;;13.76;67.15
76594;BME280;65482;50.240;14.302;2023-10-08T05:43:29;99973.94;;;13.75;67.07
76594;BME280;65482;50.240;14.302;2023-10-08T05:46:12;99998.50;;;13.60;67.55
76594;BME280;65482;50.240;14.302;2023-10-08T05:51:27;100020.22;;;13.56;67.79
76594;BME280;65482;50.240;14.302;2023-10-08T05:56:58;100037.63;;;13.33;66.73
76594;BME280;65482;50.240;14.302;2023-10-08T05:59:40;100060.09;;;13.21;66.52
76594;BME280;65482;50.240;14.302;2023-10-08T06:02:40;100090.50;;;13.01;67.78
76594;BME280;65482;50.240;14.302;2023-10-08T06:05:08;100100.25;;;12.92;68.19
76594;BME280;65482;50.240;14.302;2023-10-08T06:07:44;100097.72;;;12.74;69.06
76594;BME280;65482;50.240;14.302;2023-10-08T06:13:07;100103.59;;;12.51;69.73
76594;BME280;65482;50.240;14.302;2023-10-08T06:15:49;100107.03;;;12.44;69.63
76594;BME280;65482;50.240;14.302;2023-10-08T06:18:23;100107.00;;;12.36;68.99
76594;BME280;65482;50.240;14.302;2023-10-08T06:21:10;100108.91;;;12.25;69.17
76594;BME280;65482;50.240;14.302;2023-10-08T06:23:39;100109.53;;;12.19;70.06
76594;BME280;65482;50.240;14.302;2023-10-08T06:26:05;100119.91;;;12.12;70.42
76594;BME280;65482;50.240;14.302;2023-10-08T06:28:43;100122.41;;;12.14;69.48
76594;BME280;65482;50.240;14.302;2023-10-08T06:31:10;100101.88;;;12.08;70.52
76594;BME280;65482;50.240;14.302;2023-10-08T06:33:43;100133.03;;;11.96;70.71
76594;BME280;65482;50.240;14.302;2023-10-08T06:36:10;100139.59;;;11.74;71.02
76594;BME280;65482;50.240;14.302;2023-10-08T06:38:36;100142.19;;;11.66;71.37
76594;BME280;65482;50.240;14.302;2023-10-08T06:41:06;100160.97;;;11.63;69.92
76594;BME280;65482;50.240;14.302;2023-10-08T06:43:36;100161.09;;;11.61;70.03
76594;BME280;65482;50.240;14.302;2023-10-08T06:46:05;100168.50;;;11.58;69.93
76594;BME280;65482;50.240;14.302;2023-10-08T06:48:38;100190.91;;;11.71;70.43
76594;BME280;65482;50.240;14.302;2023-10-08T06:51:08;100188.59;;;11.86;70.01
76594;BME280;65482;50.240;14.302;2023-10-08T06:53:42;100213.00;;;11.80;69.60
76594;BME280;65482;50.240;14.302;2023-10-08T06:56:11;100221.66;;;11.72;68.60
76594;BME280;65482;50.240;14.302;2023-10-08T06:58:38;100218.28;;;11.80;67.99
76594;BME280;65482;50.240;14.302;2023-10-08T07:01:04;100231.28;;;11.91;67.65
76594;BME280;65482;50.240;14.302;2023-10-08T07:03:31;100238.00;;;11.86;69.76
76594;BME280;65482;50.240;14.302;2023-10-08T07:05:58;100246.22;;;11.83;70.89
76594;BME280;65482;50.240;14.302;2023-10-08T07:08:26;100240.25;;;11.81;71.05
76594;BME280;65482;50.240;14.302;2023-10-08T07:10:53;100259.38;;;11.92;69.71
76594;BME280;65482;50.240;14.302;2023-10-08T07:13:20;100262.34;;;11.62;70.68
76594;BME280;65482;50.240;14.302;2023-10-08T07:15:49;100262.00;;;11.74;69.82
76594;BME280;65482;50.240;14.302;2023-10-08T07:18:14;100272.41;;;11.76;69.28
76594;BME280;65482;50.240;14.302;2023-10-08T07:20:45;100275.50;;;11.71;69.15
76594;BME280;65482;50.240;14.302;2023-10-08T07:23:11;100282.06;;;11.67;68.78
76594;BME280;65482;50.240;14.302;2023-10-08T07:26:03;100279.22;;;11.79;69.68
76594;BME280;65482;50.240;14.302;2023-10-08T07:28:41;100281.72;;;11.80;70.06
76594;BME280;65482;50.240;14.302;2023-10-08T07:31:14;100296.69;;;11.89;69.45
76594;BME280;65482;50.240;14.302;2023-10-08T07:33:43;100301.72;;;11.83;67.92
76594;BME280;65482;50.240;14.302;2023-10-08T07:36:12;100317.06;;;11.51;68.47
76594;BME280;65482;50.240;14.302;2023-10-08T07:38:42;100308.78;;;11.37;68.92
76594;BME280;65482;50.240;14.302;2023-10-08T07:41:09;100306.53;;;11.42;66.92
76594;BME280;65482;50.240;14.302;2023-10-08T07:43:38;100303.66;;;11.35;67.49
76594;BME280;65482;50.240;14.302;2023-10-08T07:46:03;100317.50;;;11.47;68.34
76594;BME280;65482;50.240;14.302;2023-10-08T07:48:29;100320.25;;;11.55;69.22
76594;BME280;65482;50.240;14.302;2023-10-08T07:50:57;100322.59;;;11.58;69.73
76594;BME280;65482;50.240;14.302;2023-10-08T07:53:23;100321.78;;;11.48;67.56
76594;BME280;65482;50.240;14.302;2023-10-08T07:55:50;100340.16;;;11.49;68.88
76594;BME280;65482;50.240;14.302;2023-10-08T07:58:17;100335.28;;;11.54;68.77
76594;BME280;65482;50.240;14.302;2023-10-08T08:00:43;100331.31;;;11.41;67.12
76594;BME280;65482;50.240;14.302;2023-10-08T08:03:20;100342.31;;;11.36;68.06
76594;BME280;65482;50.240;14.302;2023-10-08T08:05:47;100352.50;;;11.59;68.86
76594;BME280;65482;50.240;14.302;2023-10-08T08:08:13;100354.38;;;11.39;69.39
76594;BME280;65482;50.240;14.302;2023-10-08T08:10:44;100359.94;;;11.35;69.35
76594;BME280;65482;50.240;14.302;2023-10-08T08:13:11;100356.47;;;11.35;68.78
76594;BME280;65482;50.240;14.302;2023-10-08T08:15:37;100365.41;;;11.34;68.82
76594;BME280;65482;50.240;14.302;2023-10-08T08:18:07;100353.00;;;11.34;69.38
76594;BME280;65482;50.240;14.302;2023-10-08T08:20:36;100346.28;;;11.50;68.55
76594;BME280;65482;50.240;14.302;2023-10-08T08:23:05;100366.53;;;11.59;68.71
76594;BME280;65482;50.240;14.302;2023-10-08T08:25:40;100361.38;;;11.58;68.47
76594;BME280;65482;50.240;14.302;2023-10-08T08:28:21;100359.47;;;11.78;68.70
76594;BME280;65482;50.240;14.302;2023-10-08T08:30:51;100373.69;;;11.77;68.74
76594;BME280;65482;50.240;14.302;2023-10-08T08:33:21;100360.75;;;11.73;68.20
76594;BME280;65482;50.240;14.302;2023-10-08T08:36:02;100382.56;;;11.75;68.35
76594;BME280;65482;50.240;14.302;2023-10-08T08:38:30;100377.53;;;11.92;68.02
76594;BME280;65482;50.240;14.302;2023-10-08T08:41:06;100388.63;;;11.96;67.15
76594;BME280;65482;50.240;14.302;2023-10-08T08:43:36;100393.19;;;12.03;66.92
76594;BME280;65482;50.240;14.302;2023-10-08T08:46:05;100390.84;;;12.00;68.09
76594;BME280;65482;50.240;14.302;2023-10-08T08:48:33;100404.88;;;12.01;67.11
76594;BME280;65482;50.240;14.302;2023-10-08T08:51:00;100396.06;;;12.10;65.38
76594;BME280;65482;50.240;14.302;2023-10-08T08:53:26;100408.03;;;12.14;64.86
76594;BME280;65482;50.240;14.302;2023-10-08T08:55:53;100424.56;;;12.16;65.72
76594;BME280;65482;50.240;14.302;2023-10-08T08:58:21;100436.25;;;12.13;65.50
76594;BME280;65482;50.240;14.302;2023-10-08T09:00:49;100440.97;;;12.20;66.08
76594;BME280;65482;50.240;14.302;2023-10-08T09:03:17;100437.06;;;12.24;66.33
76594;BME280;65482;50.240;14.302;2023-10-08T09:05:45;100453.06;;;12.22;66.71
76594;BME280;65482;50.240;14.302;2023-10-08T09:08:16;100451.38;;;12.21;66.94
76594;BME280;65482;50.240;14.302;2023-10-08T09:10:43;100451.94;;;12.25;65.30
76594;BME280;65482;50.240;14.302;2023-10-08T09:13:22;100450.66;;;12.29;64.21
76594;BME280;65482;50.240;14.302;2023-10-08T09:15:51;100450.75;;;12.37;63.91
76594;BME280;65482;50.240;14.302;2023-10-08T09:18:17;100448.50;;;12.42;62.95
76594;BME280;65482;50.240;14.302;2023-10-08T09:20:43;100445.84;;;12.42;63.07
76594;BME280;65482;50.240;14.302;2023-10-08T09:23:13;100428.22;;;12.51;62.65
76594;BME280;65482;50.240;14.302;2023-10-08T09:25:40;100443.66;;;12.56;62.62
76594;BME280;65482;50.240;14.302;2023-10-08T09:28:06;100455.00;;;12.66;62.76
76594;BME280;65482;50.240;14.302;2023-10-08T09:30:34;100451.53;;;12.65;62.57
76594;BME280;65482;50.240;14.302;2023-10-08T09:33:05;100459.25;;;12.77;62.49
76594;BME280;65482;50.240;14.302;2023-10-08T09:35:32;100455.53;;;12.87;62.13
76594;BME280;65482;50.240;14.302;2023-10-08T09:38:01;100470.56;;;12.87;61.96
76594;BME280;65482;50.240;14.302;2023-10-08T09:40:27;100471.19;;;12.99;62.23
76594;BME280;65482;50.240;14.302;2023-10-08T09:42:55;100481.78;;;12.99;62.34
76594;BME280;65482;50.240;14.302;2023-10-08T09:45:21;100470.75;;;13.03;61.99
76594;BME280;65482;50.240;14.302;2023-10-08T09:47:54;100464.16;;;13.07;60.89
76594;BME280;65482;50.240;14.302;2023-10-08T09:50:33;100463.38;;;13.15;60.81
76594;BME280;65482;50.240;14.302;2023-10-08T09:53:01;100459.09;;;13.40;60.40
76594;BME280;65482;50.240;14.302;2023-10-08T09:55:33;100468.63;;;13.51;60.28
76594;BME280;65482;50.240;14.302;2023-10-08T09:57:59;100479.72;;;13.55;59.56
76594;BME280;65482;50.240;14.302;2023-10-08T10:00:26;100485.13;;;13.63;59.47
76594;BME280;65482;50.240;14.302;2023-10-08T10:02:58;100490.72;;;13.60;59.50
76594;BME280;65482;50.240;14.302;2023-10-08T10:05:32;100503.50;;;13.64;59.24
76594;BME280;65482;50.240;14.302;2023-10-08T10:08:02;100481.25;;;13.57;59.89
76594;BME280;65482;50.240;14.302;2023-10-08T10:10:33;100480.19;;;13.76;59.86
76594;BME280;65482;50.240;14.302;2023-10-08T10:13:02;100491.31;;;13.80;59.99
76594;BME280;65482;50.240;14.302;2023-10-08T10:15:28;100498.84;;;13.92;60.06
76594;BME280;65482;50.240;14.302;2023-10-08T10:18:11;100503.00;;;13.95;59.34
76594;BME280;65482;50.240;14.302;2023-10-08T10:20:40;100505.81;;;13.93;58.97
76594;BME280;65482;50.240;14.302;2023-10-08T10:23:40;100508.47;;;13.93;59.36
76594;BME280;65482;50.240;14.302;2023-10-08T10:31:43;100516.69;;;13.82;57.98
76594;BME280;65482;50.240;14.302;2023-10-08T10:34:32;100527.47;;;13.81;58.82
76594;BME280;65482;50.240;14.302;2023-10-08T10:37:00;100524.19;;;13.87;58.79
76594;BME280;65482;50.240;14.302;2023-10-08T10:40:10;100522.72;;;13.92;58.65
76594;BME280;65482;50.240;14.302;2023-10-08T10:42:39;100514.31;;;13.97;58.04
76594;BME280;65482;50.240;14.302;2023-10-08T10:45:15;100516.28;;;13.95;57.49
76594;BME280;65482;50.240;14.302;2023-10-08T10:48:06;100517.31;;;14.10;58.28
76594;BME280;65482;50.240;14.302;2023-10-08T10:50:49;100526.03;;;14.21;57.95
76594;BME280;65482;50.240;14.302;2023-10-08T10:53:38;100525.59;;;14.42;57.51
76594;BME280;65482;50.240;14.302;2023-10-08T10:56:13;100528.91;;;14.44;56.21
76594;BME280;65482;50.240;14.302;2023-10-08T10:58:47;100534.91;;;14.54;56.42
76594;BME280;65482;50.240;14.302;2023-10-08T11:01:15;100534.44;;;14.50;55.10
76594;BME280;65482;50.240;14.302;2023-10-08T11:03:52;100538.81;;;14.68;55.36
76594;BME280;65482;50.240;14.302;2023-10-08T11:06:21;100538.81;;;14.76;55.19
76594;BME280;65482;50.240;14.302;2023-10-08T11:08:52;100540.66;;;14.84;55.11
76594;BME280;65482;50.240;14.302;2023-10-08T11:11:19;100532.03;;;14.90;55.58
76594;BME280;65482;50.240;14.302;2023-10-08T11:13:44;100528.09;;;15.10;55.15
76594;BME280;65482;50.240;14.302;2023-10-08T11:16:18;100538.56;;;15.12;55.28
76594;BME280;65482;50.240;14.302;2023-10-08T11:18:47;100532.59;;;15.10;53.04
76594;BME280;65482;50.240;14.302;2023-10-08T11:21:16;100528.41;;;14.99;53.24
76594;BME280;65482;50.240;14.302;2023-10-08T11:23:47;100532.03;;;14.90;53.88
76594;BME280;65482;50.240;14.302;2023-10-08T11:26:19;100528.25;;;15.01;53.48
76594;BME280;65482;50.240;14.302;2023-10-08T11:28:45;100531.22;;;15.06;53.09
76594;BME280;65482;50.240;14.302;2023-10-08T11:31:14;100525.59;;;15.17;53.00
76594;BME280;65482;50.240;14.302;2023-10-08T11:33:41;100523.94;;;15.24;52.53
76594;BME280;65482;50.240;14.302;2023-10-08T11:36:09;100519.63;;;15.31;52.29
76594;BME280;65482;50.240;14.302;2023-10-08T11:38:47;100521.28;;;15.41;52.08
76594;BME280;65482;50.240;14.302;2023-10-08T11:41:15;100511.63;;;15.64;50.90
76594;BME280;65482;50.240;14.302;2023-10-08T11:43:50;100515.63;;;15.52;50.65
76594;BME280;65482;50.240;14.302;2023-10-08T11:46:21;100521.59;;;15.54;51.14
76594;BME280;65482;50.240;14.302;2023-10-08T11:48:47;100523.44;;;15.62;51.04
76594;BME280;65482;50.240;14.302;2023-10-08T11:51:13;100515.28;;;15.55;51.06
76594;BME280;65482;50.240;14.302;2023-10-08T11:53:45;100511.44;;;16.30;49.21
76594;BME280;65482;50.240;14.302;2023-10-08T11:56:11;100510.31;;;15.44;51.24
76594;BME280;65482;50.240;14.302;2023-10-08T11:58:41;100510.81;;;15.39;51.64
76594;BME280;65482;50.240;14.302;2023-10-08T12:01:13;100518.78;;;15.31;50.59
76594;BME280;65482;50.240;14.302;2023-10-08T12:03:45;100510.47;;;15.18;51.73
76594;BME280;65482;50.240;14.302;2023-10-08T12:06:11;100516.47;;;15.20;51.96
76594;BME280;65482;50.240;14.302;2023-10-08T12:08:41;100515.47;;;15.29;51.78
76594;BME280;65482;50.240;14.302;2023-10-08T12:11:07;100521.63;;;15.46;51.40
76594;BME280;65482;50.240;14.302;2023-10-08T12:13:40;100514.78;;;15.51;51.65
76594;BME280;65482;50.240;14.302;2023-10-08T12:16:13;100523.09;;;15.57;51.66
76594;BME280;65482;50.240;14.302;2023-10-08T12:18:48;100521.09;;;15.50;49.99
76594;BME280;65482;50.240;14.302;2023-10-08T12:21:15;100533.38;;;15.51;50.91
76594;BME280;65482;50.240;14.302;2023-10-08T12:23:41;100528.41;;;15.65;51.23
76594;BME280;65482;50.240;14.302;2023-10-08T12:26:15;100528.56;;;15.63;51.36
76594;BME280;65482;50.240;14.302;2023-10-08T12:28:44;100515.25;;;15.71;51.18
76594;BME280;65482;50.240;14.302;2023-10-08T12:31:22;100513.59;;;15.70;51.39
76594;BME280;65482;50.240;14.302;2023-10-08T12:33:49;100515.25;;;15.63;51.58
76594;BME280;65482;50.240;14.302;2023-10-08T12:36:26;100517.59;;;15.66;51.25
76594;BME280;65482;50.240;14.302;2023-10-08T12:38:58;100519.44;;;15.66;51.54
76594;BME280;65482;50.240;14.302;2023-10-08T12:41:27;100521.91;;;15.67;51.57
76594;BME280;65482;50.240;14.302;2023-10-08T12:43:53;100513.97;;;15.76;50.97
76594;BME280;65482;50.240;14.302;2023-10-08T12:46:20;100511.97;;;15.78;50.52
76594;BME280;65482;50.240;14.302;2023-10-08T12:48:52;100504.81;;;15.62;50.67
76594;BME280;65482;50.240;14.302;2023-10-08T12:51:25;100494.50;;;15.59;50.50
76594;BME280;65482;50.240;14.302;2023-10-08T12:53:52;100493.50;;;15.68;50.68
76594;BME280;65482;50.240;14.302;2023-10-08T12:56:27;100514.13;;;15.49;51.07
76594;BME280;65482;50.240;14.302;2023-10-08T12:59:05;100511.13;;;15.52;51.53
76594;BME280;65482;50.240;14.302;2023-10-08T13:01:34;100512.28;;;15.58;51.20
76594;BME280;65482;50.240;14.302;2023-10-08T13:04:01;100501.00;;;15.73;50.99
76594;BME280;65482;50.240;14.302;2023-10-08T13:06:33;100497.63;;;15.70;51.01
76594;BME280;65482;50.240;14.302;2023-10-08T13:09:03;100495.00;;;15.62;51.61
76594;BME280;65482;50.240;14.302;2023-10-08T13:11:35;100501.50;;;15.60;51.68
76594;BME280;65482;50.240;14.302;2023-10-08T13:14:05;100504.13;;;15.68;52.05
76594;BME280;65482;50.240;14.302;2023-10-08T13:16:31;100510.78;;;15.72;51.74
76594;BME280;65482;50.240;14.302;2023-10-08T13:18:58;100513.59;;;15.79;52.30
76594;BME280;65482;50.240;14.302;2023-10-08T13:21:25;100509.25;;;15.69;50.38